Time;durP1;ratioP1;P1;durP2;ratioP2;P2;SDS_P1;SDS_P2;PMS_P1;PMS_P2;Temp;Humidity;BMP_temperature;BMP_pressure;BME280_temperature;BME280_humidity;BME280_pressure;Samples;Min_cycle;Max_cycle;Signal;HPM_P1;HPM_P2
2021/11/06 00:00:07;;;;;;;9.47;5.40;;;6.50;99.90;;;;;;4986862;28;20216;-51
2021/11/06 00:02:34;;;;;;;8.30;5.70;;;6.40;99.90;;;;;;4972699;28;20686;-52
2021/11/06 00:05:01;;;;;;;6.50;4.87;;;6.40;99.90;;;;;;4974182;28;20573;-52
2021/11/06 00:07:28;;;;;;;5.83;4.73;;;6.30;99.90;;;;;;4976933;28;20643;-53
2021/11/06 00:09:55;;;;;;;8.43;5.80;;;6.30;99.90;;;;;;4980445;28;20289;-52
2021/11/06 00:12:22;;;;;;;6.50;5.53;;;6.30;99.90;;;;;;4977949;28;20303;-52
2021/11/06 00:14:49;;;;;;;7.70;5.10;;;6.30;99.90;;;;;;4964070;28;20673;-51
2021/11/06 00:17:15;;;;;;;9.10;5.80;;;6.30;99.90;;;;;;4979216;28;20215;-53
2021/11/06 00:19:42;;;;;;;9.73;5.57;;;6.30;99.90;;;;;;4979158;28;20270;-51
2021/11/06 00:22:09;;;;;;;10.83;5.93;;;6.20;99.90;;;;;;4974809;28;20207;-52
2021/11/06 00:24:36;;;;;;;9.77;5.20;;;6.20;99.90;;;;;;4974378;28;20253;-51
2021/11/06 00:27:03;;;;;;;9.10;6.30;;;6.20;99.90;;;;;;4972129;28;20281;-52
2021/11/06 00:29:30;;;;;;;18.93;6.27;;;6.20;99.90;;;;;;4958159;28;20600;-51
2021/11/06 00:31:57;;;;;;;8.23;5.57;;;6.30;99.90;;;;;;4971726;28;21216;-50
2021/11/06 00:34:24;;;;;;;7.77;5.70;;;6.20;99.90;;;;;;4975415;28;20217;-50
2021/11/06 00:36:51;;;;;;;11.87;6.40;;;6.10;99.90;;;;;;4974412;28;20322;-53
2021/11/06 00:39:18;;;;;;;17.90;7.03;;;6.20;99.90;;;;;;4973622;28;20297;-50
2021/11/06 00:41:45;;;;;;;10.97;6.23;;;6.10;99.90;;;;;;4971153;28;20207;-51
2021/11/06 00:44:12;;;;;;;14.73;6.67;;;6.20;99.90;;;;;;4972958;28;20270;-52
2021/11/06 00:46:39;;;;;;;14.13;6.87;;;6.20;99.90;;;;;;4970788;28;20250;-53
2021/11/06 00:49:06;;;;;;;13.37;6.93;;;6.10;99.90;;;;;;4973783;28;20205;-50
2021/11/06 00:51:33;;;;;;;13.93;7.40;;;6.10;99.90;;;;;;4971495;28;20340;-52
2021/11/06 00:54:00;;;;;;;14.23;7.40;;;6.10;99.90;;;;;;4973686;28;20298;-52
2021/11/06 00:56:26;;;;;;;21.33;8.33;;;6.20;99.90;;;;;;4971230;28;20904;-51
2021/11/06 00:58:53;;;;;;;17.50;7.57;;;6.10;99.90;;;;;;4972819;28;20632;-51
2021/11/06 01:01:20;;;;;;;19.70;8.20;;;6.10;99.90;;;;;;4971497;28;20584;-51
2021/11/06 01:03:48;;;;;;;19.40;8.80;;;6.10;99.90;;;;;;4971646;28;20206;-53
2021/11/06 01:06:15;;;;;;;22.03;9.13;;;6.20;99.90;;;;;;4971677;28;20321;-52
2021/11/06 01:08:43;;;;;;;19.27;8.60;;;6.20;99.90;;;;;;4973896;28;20767;-52
2021/11/06 01:11:11;;;;;;;23.23;9.20;;;6.20;99.90;;;;;;4972528;28;20207;-52
2021/11/06 01:13:37;;;;;;;23.60;9.80;;;6.10;99.90;;;;;;4972980;28;20241;-52
2021/11/06 01:16:05;;;;;;;22.77;9.00;;;6.10;99.90;;;;;;4971454;28;20225;-52
2021/11/06 01:18:31;;;;;;;23.33;9.60;;;6.10;99.90;;;;;;4971735;28;20282;-52
2021/11/06 01:20:58;;;;;;;26.53;9.30;;;6.10;99.90;;;;;;4974912;28;20227;-51
2021/11/06 01:23:26;;;;;;;28.53;9.20;;;6.00;99.90;;;;;;4973593;28;20293;-52
2021/11/06 01:25:55;;;;;;;25.20;9.43;;;6.00;99.90;;;;;;4973894;28;20676;-52
2021/11/06 01:28:22;;;;;;;20.47;9.57;;;6.00;99.90;;;;;;4968618;28;20249;-53
2021/11/06 01:30:49;;;;;;;25.50;10.03;;;6.00;99.90;;;;;;4967735;28;20741;-52
2021/11/06 01:33:16;;;;;;;21.90;9.93;;;6.00;99.90;;;;;;4970511;28;20230;-51
2021/11/06 01:35:43;;;;;;;28.53;9.70;;;6.00;99.90;;;;;;4971036;28;20610;-52
2021/11/06 01:38:10;;;;;;;17.23;8.37;;;6.00;99.90;;;;;;4969393;28;20211;-51
2021/11/06 01:40:37;;;;;;;25.77;8.93;;;6.00;99.90;;;;;;4968754;28;20257;-51
2021/11/06 01:43:04;;;;;;;19.03;9.10;;;6.00;99.90;;;;;;4972078;28;20795;-52
2021/11/06 01:45:31;;;;;;;20.00;9.40;;;5.90;99.90;;;;;;4971726;28;20542;-52
2021/11/06 01:47:58;;;;;;;17.53;8.93;;;5.90;99.90;;;;;;4970522;28;20695;-51
2021/11/06 01:50:27;;;;;;;21.23;9.13;;;6.00;99.90;;;;;;4971749;28;20270;-52
2021/11/06 01:52:54;;;;;;;20.40;9.20;;;6.10;99.90;;;;;;4971337;28;20260;-52
2021/11/06 01:55:21;;;;;;;20.33;8.60;;;6.20;99.90;;;;;;4972308;28;20210;-50
2021/11/06 01:57:49;;;;;;;16.80;9.20;;;6.30;99.90;;;;;;4969034;28;20690;-51
2021/11/06 02:00:26;;;;;;;23.47;9.70;;;6.40;99.90;;;;;;4970044;28;20281;-53
2021/11/06 02:02:53;;;;;;;20.67;9.70;;;6.50;99.90;;;;;;4971366;28;20206;-52
2021/11/06 02:05:20;;;;;;;21.10;9.37;;;6.60;99.90;;;;;;4971830;28;20210;-52
2021/11/06 02:07:47;;;;;;;18.23;9.70;;;6.70;99.90;;;;;;4970992;28;20903;-51
2021/11/06 02:10:15;;;;;;;17.30;9.10;;;6.70;99.90;;;;;;4972321;28;20671;-52
2021/11/06 02:12:43;;;;;;;19.37;10.07;;;6.60;99.90;;;;;;4971638;28;20240;-51
2021/11/06 02:15:15;;;;;;;23.67;9.73;;;6.70;99.90;;;;;;4970020;28;20872;-52
2021/11/06 02:17:43;;;;;;;18.17;10.07;;;6.70;99.90;;;;;;4969025;28;20352;-50
2021/11/06 02:20:11;;;;;;;20.40;9.37;;;6.50;99.90;;;;;;4971944;28;20649;-50
2021/11/06 02:22:38;;;;;;;20.03;8.87;;;6.30;99.90;;;;;;4973631;28;20713;-51
2021/11/06 02:25:06;;;;;;;19.50;10.03;;;6.30;99.90;;;;;;4972369;28;20578;-51
2021/11/06 02:27:34;;;;;;;15.73;9.60;;;6.10;99.90;;;;;;4971084;28;20286;-51
2021/11/06 02:30:03;;;;;;;18.03;9.27;;;6.10;99.90;;;;;;4971366;28;20205;-50
2021/11/06 02:32:30;;;;;;;16.77;9.47;;;6.00;99.90;;;;;;4971407;28;20211;-51
2021/11/06 02:34:57;;;;;;;18.83;10.50;;;5.90;99.90;;;;;;4972783;28;20702;-53
2021/11/06 02:37:24;;;;;;;18.53;9.20;;;6.00;99.90;;;;;;4971275;28;20246;-53
2021/11/06 02:39:50;;;;;;;14.63;9.03;;;6.20;99.90;;;;;;4972479;28;20689;-53
2021/11/06 02:42:17;;;;;;;15.37;10.00;;;6.20;99.90;;;;;;4970159;28;20199;-52
2021/11/06 02:44:46;;;;;;;13.67;7.83;;;6.20;99.90;;;;;;4972379;28;20296;-51
2021/11/06 02:47:13;;;;;;;12.17;8.00;;;6.20;99.90;;;;;;4951271;28;20829;-52
2021/11/06 02:49:40;;;;;;;18.13;8.43;;;6.10;99.90;;;;;;4971296;28;20358;-53
2021/11/06 02:52:07;;;;;;;16.47;8.60;;;6.20;99.90;;;;;;4971989;28;20315;-51
2021/11/06 02:54:34;;;;;;;18.97;10.00;;;6.10;99.90;;;;;;4961441;28;20309;-51
2021/11/06 02:57:01;;;;;;;18.23;8.57;;;6.10;99.90;;;;;;4970295;28;20270;-52
2021/11/06 02:59:28;;;;;;;17.17;9.17;;;6.10;99.90;;;;;;4974993;28;20286;-52
2021/11/06 03:01:55;;;;;;;20.00;9.23;;;6.10;99.90;;;;;;4971800;28;20832;-52
2021/11/06 03:04:22;;;;;;;17.70;9.57;;;6.20;99.90;;;;;;4972042;28;20694;-52
2021/11/06 03:06:49;;;;;;;14.90;8.83;;;6.20;99.90;;;;;;4971334;28;20202;-51
2021/11/06 03:09:17;;;;;;;18.37;9.57;;;6.20;99.90;;;;;;4971653;28;20270;-50
2021/11/06 03:11:44;;;;;;;16.50;8.63;;;6.10;99.90;;;;;;4970724;28;20707;-52
2021/11/06 03:14:12;;;;;;;18.90;9.40;;;6.10;99.90;;;;;;4968894;28;20214;-51
2021/11/06 03:16:42;;;;;;;16.63;8.77;;;6.10;99.90;;;;;;4969353;28;20908;-52
2021/11/06 03:19:08;;;;;;;19.00;8.83;;;6.10;99.90;;;;;;4970955;28;20205;-52
2021/11/06 03:21:36;;;;;;;15.77;8.77;;;6.20;99.90;;;;;;4969583;28;20602;-52
2021/11/06 03:24:04;;;;;;;17.17;9.07;;;6.30;99.90;;;;;;4976268;28;20662;-51
2021/11/06 03:26:30;;;;;;;18.10;9.67;;;6.20;99.90;;;;;;4970588;28;20225;-50
2021/11/06 03:28:57;;;;;;;20.97;10.13;;;6.10;99.90;;;;;;4972963;28;20660;-54
2021/11/06 03:31:24;;;;;;;17.93;9.27;;;6.10;99.90;;;;;;4973326;28;20301;-53
2021/11/06 03:33:52;;;;;;;15.67;9.17;;;6.20;99.90;;;;;;4973622;28;20583;-51
2021/11/06 03:36:19;;;;;;;17.33;9.67;;;6.20;99.90;;;;;;4972563;28;20212;-52
2021/11/06 03:38:46;;;;;;;15.73;8.80;;;6.10;99.90;;;;;;4972409;28;20589;-52
2021/11/06 03:41:13;;;;;;;16.33;9.23;;;6.20;99.90;;;;;;4972367;28;20258;-51
2021/11/06 03:43:40;;;;;;;15.60;8.63;;;6.20;99.90;;;;;;4974139;28;20627;-51
2021/11/06 03:46:07;;;;;;;14.70;8.83;;;6.20;99.90;;;;;;4971508;28;20312;-50
2021/11/06 03:48:34;;;;;;;19.77;9.87;;;6.20;99.90;;;;;;4971592;28;20217;-51
2021/11/06 03:51:01;;;;;;;20.33;8.87;;;6.10;99.90;;;;;;4973158;28;20300;-51
2021/11/06 03:53:28;;;;;;;16.20;8.57;;;6.10;99.90;;;;;;4973658;28;21121;-52
2021/11/06 03:55:55;;;;;;;16.40;9.30;;;6.10;99.90;;;;;;4974174;28;20233;-51
2021/11/06 03:58:22;;;;;;;12.93;8.60;;;6.10;99.90;;;;;;4970987;28;20298;-50
2021/11/06 04:00:49;;;;;;;15.47;9.23;;;6.10;99.90;;;;;;4974051;28;20194;-51
2021/11/06 04:03:16;;;;;;;15.40;8.43;;;6.10;99.90;;;;;;4975724;28;20228;-51
2021/11/06 04:05:43;;;;;;;18.10;8.73;;;6.10;99.90;;;;;;4973607;28;20690;-50
2021/11/06 04:08:10;;;;;;;20.27;8.57;;;6.10;99.90;;;;;;4975008;28;20815;-52
2021/11/06 04:10:37;;;;;;;17.67;8.93;;;6.20;99.90;;;;;;4974307;28;20258;-52
2021/11/06 04:13:04;;;;;;;13.03;7.93;;;6.20;99.90;;;;;;4973681;28;20232;-51
2021/11/06 04:15:31;;;;;;;14.20;8.50;;;6.20;99.90;;;;;;4973015;28;20232;-51
2021/11/06 04:17:58;;;;;;;17.13;9.30;;;6.30;99.90;;;;;;4955145;28;20643;-51
2021/11/06 04:20:25;;;;;;;14.80;8.23;;;6.30;99.90;;;;;;4974528;28;20292;-52
2021/11/06 04:22:52;;;;;;;15.57;8.77;;;6.30;99.90;;;;;;4957920;28;20232;-51
2021/11/06 04:25:19;;;;;;;15.47;9.90;;;6.40;99.90;;;;;;4974740;28;20198;-52
2021/11/06 04:27:46;;;;;;;17.03;9.67;;;6.40;99.90;;;;;;4973453;28;20726;-51
2021/11/06 04:30:13;;;;;;;16.47;9.13;;;6.50;99.90;;;;;;4973397;28;20234;-51
2021/11/06 04:32:41;;;;;;;15.33;9.10;;;6.50;99.90;;;;;;4956716;28;20287;-51
2021/11/06 04:35:09;;;;;;;13.80;8.90;;;6.40;99.90;;;;;;4972910;28;20318;-49
2021/11/06 04:37:36;;;;;;;13.43;8.73;;;6.40;99.90;;;;;;4974324;28;20245;-52
2021/11/06 04:40:07;;;;;;;14.80;9.00;;;6.40;99.90;;;;;;4975484;28;20263;-51
2021/11/06 04:42:34;;;;;;;13.77;9.73;;;6.40;99.90;;;;;;4973424;28;20217;-51
2021/11/06 04:45:01;;;;;;;17.77;9.90;;;6.40;99.90;;;;;;4974285;28;20658;-51
2021/11/06 04:47:27;;;;;;;14.80;9.50;;;6.40;99.90;;;;;;4972334;28;20322;-50
2021/11/06 04:49:55;;;;;;;16.10;9.80;;;6.40;99.90;;;;;;4975834;28;20245;-49
2021/11/06 04:52:22;;;;;;;12.97;9.33;;;6.50;99.90;;;;;;4972737;28;20311;-51
2021/11/06 04:54:49;;;;;;;16.77;10.77;;;6.50;99.90;;;;;;4974270;28;20232;-51
2021/11/06 04:57:16;;;;;;;19.17;11.03;;;6.50;99.90;;;;;;4970903;28;20222;-51
2021/11/06 04:59:43;;;;;;;17.87;9.63;;;6.50;99.90;;;;;;4974394;28;20718;-54
2021/11/06 05:02:10;;;;;;;18.77;10.43;;;6.50;99.90;;;;;;4972935;28;20210;-52
2021/11/06 05:04:37;;;;;;;16.67;10.27;;;6.50;99.90;;;;;;4974560;28;20221;-52
2021/11/06 05:07:05;;;;;;;15.17;9.13;;;6.50;99.90;;;;;;4971201;28;20316;-50
2021/11/06 05:09:33;;;;;;;17.90;9.87;;;6.50;99.90;;;;;;4973846;28;20237;-50
2021/11/06 05:12:00;;;;;;;17.37;10.37;;;6.50;99.90;;;;;;4971170;28;20630;-51
2021/11/06 05:14:27;;;;;;;16.43;9.83;;;6.60;99.90;;;;;;4972624;28;20197;-51
2021/11/06 05:16:54;;;;;;;13.67;9.27;;;6.60;99.90;;;;;;4969156;28;20207;-53
2021/11/06 05:19:21;;;;;;;14.87;10.27;;;6.60;99.90;;;;;;4974071;28;20230;-51
2021/11/06 05:21:48;;;;;;;15.17;9.53;;;6.60;99.90;;;;;;4970502;28;20209;-52
2021/11/06 05:24:15;;;;;;;16.53;9.77;;;6.60;99.90;;;;;;4973014;28;20348;-50
2021/11/06 05:26:42;;;;;;;14.67;9.40;;;6.70;99.90;;;;;;4970278;28;20215;-50
2021/11/06 05:29:10;;;;;;;14.87;9.90;;;6.60;99.90;;;;;;4971861;28;20210;-50
2021/11/06 05:31:38;;;;;;;17.83;9.73;;;6.70;99.90;;;;;;4968328;28;20257;-51
2021/11/06 05:34:07;;;;;;;15.40;9.50;;;6.60;99.90;;;;;;4971093;28;20626;-52
2021/11/06 05:36:34;;;;;;;16.33;10.33;;;6.70;99.90;;;;;;4971093;28;20234;-51
2021/11/06 05:39:02;;;;;;;14.30;9.60;;;6.70;99.90;;;;;;4972913;28;20269;-51
2021/11/06 05:41:29;;;;;;;14.80;9.63;;;6.70;99.90;;;;;;4972900;28;20204;-51
2021/11/06 05:43:57;;;;;;;13.13;9.60;;;6.70;99.90;;;;;;4971813;28;20198;-51
2021/11/06 05:46:24;;;;;;;18.20;11.27;;;6.70;99.90;;;;;;4969577;28;20282;-50
2021/11/06 05:48:51;;;;;;;11.83;9.00;;;6.80;99.90;;;;;;4970963;28;20277;-51
2021/11/06 05:51:36;;;;;;;15.20;9.40;;;6.90;99.90;;;;;;4969788;28;20251;-52
2021/11/06 05:54:03;;;;;;;13.50;9.97;;;6.90;99.90;;;;;;4969511;28;20217;-51
2021/11/06 05:56:30;;;;;;;15.40;9.53;;;7.00;99.90;;;;;;4971968;28;20253;-51
2021/11/06 05:58:56;;;;;;;20.53;10.90;;;6.90;99.90;;;;;;4969698;28;20364;-50
2021/11/06 06:01:23;;;;;;;17.00;10.30;;;6.90;99.90;;;;;;4972172;28;20200;-52
2021/11/06 06:03:52;;;;;;;17.37;9.87;;;7.00;99.90;;;;;;4970386;28;20207;-51
2021/11/06 06:06:19;;;;;;;18.23;9.60;;;7.00;99.90;;;;;;4968825;28;20334;-52
2021/11/06 06:08:46;;;;;;;16.43;10.10;;;7.00;99.90;;;;;;4969043;28;20308;-49
2021/11/06 06:11:12;;;;;;;14.00;9.70;;;7.00;99.90;;;;;;4969419;28;20217;-51
2021/11/06 06:13:40;;;;;;;12.93;9.37;;;7.10;99.90;;;;;;4970799;28;20303;-51
2021/11/06 06:16:07;;;;;;;14.03;9.73;;;7.10;99.90;;;;;;4969757;28;20327;-50
2021/11/06 06:18:33;;;;;;;15.27;9.70;;;7.00;99.90;;;;;;4969348;28;20226;-49
2021/11/06 06:21:00;;;;;;;12.70;8.47;;;7.10;99.90;;;;;;4968211;28;20313;-50
2021/11/06 06:23:27;;;;;;;12.23;9.13;;;7.10;99.90;;;;;;4971619;28;20223;-52
2021/11/06 06:25:55;;;;;;;11.90;9.20;;;7.10;99.90;;;;;;4972578;28;20241;-50
2021/11/06 06:28:22;;;;;;;16.23;9.63;;;7.10;99.90;;;;;;4971713;28;20317;-53
2021/11/06 06:30:49;;;;;;;14.73;9.33;;;7.10;99.90;;;;;;4969530;28;20214;-52
2021/11/06 06:33:16;;;;;;;17.47;9.67;;;7.00;99.90;;;;;;4970866;28;20952;-51
2021/11/06 06:35:43;;;;;;;12.80;9.03;;;7.10;99.90;;;;;;4967553;28;20295;-51
2021/11/06 06:38:10;;;;;;;13.57;9.73;;;7.00;99.90;;;;;;4969826;28;20261;-50
2021/11/06 06:40:37;;;;;;;11.97;8.90;;;7.00;99.90;;;;;;4967486;28;20199;-53
2021/11/06 06:43:04;;;;;;;13.23;9.93;;;7.00;99.90;;;;;;4969011;28;20289;-51
2021/11/06 06:45:31;;;;;;;17.30;9.87;;;7.10;99.90;;;;;;4976036;28;20249;-53
2021/11/06 06:47:58;;;;;;;15.33;9.33;;;7.10;99.90;;;;;;4969940;28;20274;-51
2021/11/06 06:50:25;;;;;;;18.67;9.53;;;7.20;99.90;;;;;;4971111;28;20309;-50
2021/11/06 06:52:52;;;;;;;19.33;9.80;;;7.10;99.90;;;;;;4970767;28;20205;-50
2021/11/06 06:55:19;;;;;;;13.67;9.93;;;7.10;99.90;;;;;;4971214;28;20264;-52
2021/11/06 06:57:46;;;;;;;16.80;9.60;;;7.20;99.90;;;;;;4973059;28;20336;-50
2021/11/06 07:00:13;;;;;;;15.10;8.97;;;7.20;99.90;;;;;;4972257;28;20605;-50
2021/11/06 07:02:40;;;;;;;15.60;9.23;;;7.10;99.90;;;;;;4972842;28;21142;-51
2021/11/06 07:05:08;;;;;;;12.87;9.17;;;7.20;99.90;;;;;;4973085;28;20766;-51
2021/11/06 07:07:35;;;;;;;15.27;9.13;;;7.20;99.90;;;;;;4973515;28;20305;-51
2021/11/06 07:10:04;;;;;;;13.93;9.47;;;7.20;99.90;;;;;;4970482;28;20316;-50
2021/11/06 07:12:32;;;;;;;14.20;9.00;;;7.30;99.90;;;;;;4972367;28;20331;-50
2021/11/06 07:15:00;;;;;;;11.47;8.67;;;7.40;99.90;;;;;;4970268;28;20204;-50
2021/11/06 07:17:26;;;;;;;11.00;8.37;;;7.30;99.90;;;;;;4971025;28;20213;-50
2021/11/06 07:19:53;;;;;;;12.53;9.23;;;7.30;99.90;;;;;;4970257;28;20298;-53
2021/11/06 07:22:20;;;;;;;14.07;8.87;;;7.20;99.90;;;;;;4972642;28;20233;-52
2021/11/06 07:24:47;;;;;;;12.17;8.00;;;7.30;99.90;;;;;;4971045;28;20280;-51
2021/11/06 07:27:14;;;;;;;12.33;8.53;;;7.20;99.90;;;;;;4968970;28;20198;-50
2021/11/06 07:29:41;;;;;;;11.70;8.07;;;7.30;99.90;;;;;;4969543;28;20212;-50
2021/11/06 07:32:08;;;;;;;12.77;8.77;;;7.30;99.90;;;;;;4967131;28;20301;-51
2021/11/06 07:34:35;;;;;;;16.13;8.70;;;7.40;99.90;;;;;;4972170;28;20211;-51
2021/11/06 07:37:02;;;;;;;11.37;8.83;;;7.40;99.90;;;;;;4974296;28;20201;-52
2021/11/06 07:39:29;;;;;;;12.27;8.37;;;7.40;99.90;;;;;;4973785;28;20234;-50
2021/11/06 07:41:56;;;;;;;13.30;8.33;;;7.50;99.90;;;;;;4972971;28;20305;-50
2021/11/06 07:44:23;;;;;;;11.87;8.60;;;7.60;99.90;;;;;;4973669;28;20831;-50
2021/11/06 07:46:52;;;;;;;10.83;8.30;;;7.50;99.90;;;;;;4971790;28;20237;-50
2021/11/06 07:49:19;;;;;;;14.17;8.13;;;7.60;99.90;;;;;;4975280;28;20309;-51
2021/11/06 07:51:46;;;;;;;9.73;8.50;;;7.60;99.90;;;;;;4969243;28;20249;-49
2021/11/06 07:54:13;;;;;;;12.30;8.37;;;7.60;99.90;;;;;;4972341;28;20213;-52
2021/11/06 07:56:40;;;;;;;13.87;8.00;;;7.50;99.90;;;;;;4974531;28;20206;-50
2021/11/06 07:59:07;;;;;;;14.27;7.77;;;7.40;99.90;;;;;;4975620;28;21086;-50
2021/11/06 08:01:34;;;;;;;12.97;8.33;;;7.40;99.90;;;;;;4973394;28;20207;-50
2021/11/06 08:04:01;;;;;;;12.80;7.87;;;7.40;99.90;;;;;;4971598;28;20261;-51
2021/11/06 08:06:28;;;;;;;11.87;7.87;;;7.40;99.90;;;;;;4973593;28;20258;-51
2021/11/06 08:08:55;;;;;;;10.07;7.30;;;7.60;99.90;;;;;;4972908;28;20242;-50
2021/11/06 08:11:24;;;;;;;11.73;7.40;;;7.50;99.90;;;;;;4970986;28;20210;-50
2021/11/06 08:13:52;;;;;;;11.83;7.87;;;7.40;99.90;;;;;;4972379;28;20202;-50
2021/11/06 08:16:19;;;;;;;11.77;7.63;;;7.60;99.90;;;;;;4956940;28;20238;-51
2021/11/06 08:18:46;;;;;;;11.97;7.40;;;7.70;99.90;;;;;;4976342;28;20376;-52
2021/11/06 08:21:13;;;;;;;10.27;7.20;;;7.80;99.90;;;;;;4976885;28;20297;-52
2021/11/06 08:23:40;;;;;;;13.60;7.60;;;7.70;99.90;;;;;;4975346;28;20199;-51
2021/11/06 08:26:07;;;;;;;11.50;7.40;;;7.80;99.90;;;;;;4973588;28;20300;-51
2021/11/06 08:28:34;;;;;;;10.47;7.80;;;7.90;99.90;;;;;;4972246;28;20240;-51
2021/11/06 08:31:01;;;;;;;9.97;7.03;;;8.00;99.90;;;;;;4974766;28;20308;-50
2021/11/06 08:33:32;;;;;;;10.83;6.90;;;8.10;99.90;;;;;;4973986;28;20298;-53
2021/11/06 08:36:00;;;;;;;10.73;7.13;;;8.10;99.90;;;;;;4969718;28;20855;-52
2021/11/06 08:38:28;;;;;;;10.60;6.37;;;8.20;99.90;;;;;;4968916;28;20240;-51
2021/11/06 08:40:55;;;;;;;9.83;6.93;;;8.30;99.90;;;;;;4972231;28;20220;-51
2021/11/06 08:43:23;;;;;;;11.10;6.40;;;8.40;99.90;;;;;;4972736;28;20873;-50
2021/11/06 08:45:50;;;;;;;10.50;6.10;;;8.50;99.90;;;;;;4969396;28;20333;-51
2021/11/06 08:48:17;;;;;;;10.07;6.47;;;8.30;99.90;;;;;;4968147;28;22406;-53
2021/11/06 08:50:44;;;;;;;9.10;6.40;;;8.40;99.90;;;;;;4965624;28;20275;-52
2021/11/06 08:53:11;;;;;;;8.30;5.53;;;8.40;99.90;;;;;;4964720;28;20955;-51
2021/11/06 08:55:38;;;;;;;8.90;5.87;;;8.30;99.90;;;;;;4953933;28;20201;-52
2021/11/06 08:58:05;;;;;;;10.33;6.33;;;8.30;99.90;;;;;;4959977;28;20199;-50
2021/11/06 09:00:38;;;;;;;8.50;6.40;;;8.30;99.90;;;;;;4949955;28;20294;-51
2021/11/06 09:03:09;;;;;;;9.10;6.60;;;8.20;99.90;;;;;;4970050;28;20215;-50
2021/11/06 09:05:38;;;;;;;8.10;5.70;;;8.30;99.90;;;;;;4970203;28;20257;-51
2021/11/06 09:08:25;;;;;;;8.90;5.70;;;8.30;99.90;;;;;;4970862;28;20211;-51
2021/11/06 09:10:59;;;;;;;6.23;4.77;;;8.40;99.90;;;;;;4968024;28;20211;-50
2021/11/06 09:13:26;;;;;;;10.30;5.50;;;8.50;99.90;;;;;;4974583;28;20266;-50
2021/11/06 09:16:03;;;;;;;8.53;5.13;;;8.50;99.90;;;;;;4972543;28;20687;-51
2021/11/06 09:18:30;;;;;;;9.23;6.03;;;8.60;99.90;;;;;;4970209;28;20250;-53
2021/11/06 09:20:57;;;;;;;7.40;5.20;;;8.60;99.90;;;;;;4969683;28;20223;-50
2021/11/06 09:23:25;;;;;;;6.73;5.23;;;8.80;99.90;;;;;;4969568;28;20642;-51
2021/11/06 09:25:52;;;;;;;10.80;5.77;;;8.80;99.90;;;;;;4970995;28;20209;-51
2021/11/06 09:28:19;;;;;;;7.60;4.77;;;8.90;99.90;;;;;;4952964;28;20208;-50
2021/11/06 09:30:46;;;;;;;8.47;5.10;;;8.80;99.90;;;;;;4970794;28;21042;-53
2021/11/06 09:33:13;;;;;;;7.03;4.93;;;8.80;99.90;;;;;;4969056;28;20206;-52
2021/11/06 09:35:41;;;;;;;7.80;4.83;;;8.90;99.90;;;;;;4970333;28;20310;-51
2021/11/06 09:38:08;;;;;;;6.80;4.67;;;8.90;99.90;;;;;;4969523;28;20213;-51
2021/11/06 09:40:35;;;;;;;8.73;5.10;;;9.00;99.90;;;;;;4968544;28;20304;-51
2021/11/06 09:43:02;;;;;;;7.13;4.57;;;9.00;99.90;;;;;;4966688;28;20260;-53
2021/11/06 09:45:30;;;;;;;9.70;5.00;;;9.10;99.90;;;;;;4970139;28;20629;-52
2021/11/06 09:47:56;;;;;;;9.03;4.77;;;9.20;99.90;;;;;;4968608;28;20256;-52
2021/11/06 09:50:24;;;;;;;5.93;4.37;;;9.20;99.90;;;;;;4953211;28;20242;-50
2021/11/06 09:52:52;;;;;;;7.47;5.07;;;9.30;99.90;;;;;;4970387;28;20213;-50
2021/11/06 09:55:21;;;;;;;8.63;4.20;;;9.20;99.90;;;;;;4970290;28;20309;-51
2021/11/06 09:57:49;;;;;;;7.97;4.60;;;9.30;99.90;;;;;;4971486;28;20251;-51
2021/11/06 10:00:18;;;;;;;6.57;4.67;;;9.30;99.90;;;;;;4969779;28;20218;-60
2021/11/06 10:02:45;;;;;;;5.47;4.47;;;9.30;99.90;;;;;;4968698;28;20231;-50
2021/11/06 10:05:14;;;;;;;8.53;4.80;;;9.30;99.90;;;;;;4970036;28;20208;-50
2021/11/06 10:07:42;;;;;;;6.83;4.60;;;9.40;99.90;;;;;;4971400;28;20306;-50
2021/11/06 10:10:15;;;;;;;6.10;3.90;;;9.50;99.90;;;;;;4971006;28;20235;-50
2021/11/06 10:12:52;;;;;;;7.73;3.77;;;9.60;99.90;;;;;;4972418;28;20663;-51
2021/11/06 10:15:22;;;;;;;6.97;3.90;;;9.40;99.90;;;;;;4969771;28;20302;-50
2021/11/06 10:17:49;;;;;;;6.13;4.27;;;9.50;99.90;;;;;;4970316;28;20698;-51
2021/11/06 10:20:29;;;;;;;4.23;3.83;;;9.60;99.90;;;;;;4970117;28;21087;-53
2021/11/06 10:22:59;;;;;;;6.07;3.87;;;9.60;99.90;;;;;;4967707;28;20195;-51
2021/11/06 10:25:30;;;;;;;5.73;3.90;;;9.70;99.90;;;;;;4966835;28;20208;-50
2021/11/06 10:27:59;;;;;;;5.40;3.90;;;9.60;99.90;;;;;;4966448;28;20209;-50
2021/11/06 10:30:32;;;;;;;10.33;4.40;;;9.60;99.90;;;;;;4955517;28;20202;-50
2021/11/06 10:33:12;;;;;;;7.67;3.87;;;9.70;99.90;;;;;;4972449;28;20209;-51
2021/11/06 10:35:45;;;;;;;6.43;5.33;;;9.80;99.90;;;;;;4971050;28;20251;-51
2021/11/06 10:38:21;;;;;;;7.73;4.40;;;9.70;99.90;;;;;;4972483;28;20294;-51
2021/11/06 10:41:01;;;;;;;6.87;4.27;;;9.70;99.90;;;;;;4969617;28;20244;-51
2021/11/06 10:43:31;;;;;;;6.27;4.00;;;9.80;99.90;;;;;;4961847;28;20227;-50
2021/11/06 10:46:01;;;;;;;7.63;3.73;;;9.80;99.90;;;;;;4977557;28;20252;-50
2021/11/06 10:48:35;;;;;;;5.07;3.87;;;9.70;99.90;;;;;;4976137;28;20581;-51
2021/11/06 10:51:05;;;;;;;6.80;3.97;;;9.70;99.90;;;;;;4976747;28;20269;-51
2021/11/06 10:53:44;;;;;;;4.40;4.00;;;9.80;99.90;;;;;;4976749;28;20231;-51
2021/11/06 10:56:13;;;;;;;8.40;4.27;;;9.80;99.90;;;;;;4976074;28;20236;-50
2021/11/06 10:58:45;;;;;;;6.93;4.50;;;9.90;99.90;;;;;;4974354;28;20241;-53
2021/11/06 11:01:18;;;;;;;8.77;4.70;;;9.90;99.90;;;;;;4974189;28;20206;-52
2021/11/06 11:03:48;;;;;;;5.03;3.93;;;9.90;99.90;;;;;;4969054;28;20237;-50
2021/11/06 11:06:20;;;;;;;5.63;4.07;;;10.00;99.90;;;;;;4970378;28;21153;-49
2021/11/06 11:08:53;;;;;;;6.07;4.27;;;10.00;99.90;;;;;;4969295;28;20302;-49
2021/11/06 11:11:24;;;;;;;6.17;4.10;;;10.00;99.90;;;;;;4972269;28;20204;-51
2021/11/06 11:14:00;;;;;;;7.33;5.27;;;10.00;99.90;;;;;;4971453;28;20205;-51
2021/11/06 11:16:29;;;;;;;6.60;4.70;;;10.10;99.90;;;;;;4973514;28;20277;-52
2021/11/06 11:19:02;;;;;;;5.40;4.10;;;10.10;99.90;;;;;;4971179;28;20296;-50
2021/11/06 11:21:31;;;;;;;5.20;4.30;;;10.10;99.90;;;;;;4971208;28;21066;-51
2021/11/06 11:24:04;;;;;;;6.43;4.13;;;10.20;99.90;;;;;;4974578;28;20294;-51
2021/11/06 11:26:32;;;;;;;4.93;3.67;;;10.30;99.90;;;;;;4972479;28;20208;-50
2021/11/06 11:29:01;;;;;;;6.67;3.83;;;10.30;99.90;;;;;;4970526;28;20300;-51
2021/11/06 11:31:29;;;;;;;6.23;3.83;;;10.30;99.90;;;;;;4973573;28;20208;-52
2021/11/06 11:33:57;;;;;;;5.00;4.33;;;10.40;99.90;;;;;;4972258;28;20213;-51
2021/11/06 11:36:27;;;;;;;6.37;4.20;;;10.40;99.90;;;;;;4968509;28;20341;-51
2021/11/06 11:38:56;;;;;;;4.60;4.03;;;10.50;99.90;;;;;;4975038;28;20717;-51
2021/11/06 11:41:43;;;;;;;6.53;4.10;;;10.50;99.90;;;;;;4968841;28;20237;-50
2021/11/06 11:44:38;;;;;;;4.47;3.70;;;10.60;99.90;;;;;;4970498;28;20221;-49
2021/11/06 11:47:30;;;;;;;4.93;3.67;;;10.60;99.90;;;;;;4969779;28;20324;-52
2021/11/06 11:50:00;;;;;;;5.73;4.03;;;10.70;99.90;;;;;;4964375;28;20245;-51
2021/11/06 11:52:37;;;;;;;6.13;3.87;;;10.70;99.90;;;;;;4970901;28;20238;-51
2021/11/06 11:55:08;;;;;;;6.40;4.13;;;10.70;99.90;;;;;;4973316;28;20235;-51
2021/11/06 11:57:38;;;;;;;5.10;4.13;;;10.70;99.90;;;;;;4971717;28;20260;-51
2021/11/06 12:00:17;;;;;;;5.23;4.67;;;10.80;99.90;;;;;;4971044;28;20815;-51
2021/11/06 12:03:00;;;;;;;4.90;3.93;;;10.90;99.90;;;;;;4974351;28;20195;-51
2021/11/06 12:05:43;;;;;;;5.03;3.90;;;11.00;99.90;;;;;;4971135;28;20809;-50
2021/11/06 12:08:10;;;;;;;6.50;4.63;;;11.10;99.90;;;;;;4970829;28;20203;-50
2021/11/06 12:10:46;;;;;;;5.20;4.03;;;11.20;99.90;;;;;;4966935;28;20248;-50
2021/11/06 12:13:29;;;;;;;5.33;4.07;;;11.30;99.90;;;;;;4966067;28;20306;-50
2021/11/06 12:16:02;;;;;;;6.43;4.20;;;11.40;99.90;;;;;;4952611;28;20301;-49
2021/11/06 12:18:32;;;;;;;5.37;4.00;;;11.50;99.90;;;;;;4972215;28;20198;-52
2021/11/06 12:21:15;;;;;;;6.70;4.17;;;11.50;99.90;;;;;;4974600;28;20325;-51
2021/11/06 12:23:44;;;;;;;7.10;3.90;;;11.50;99.90;;;;;;4973855;28;20339;-51
2021/11/06 12:26:34;;;;;;;6.83;4.07;;;11.30;99.90;;;;;;4971977;28;20722;-50
2021/11/06 12:29:06;;;;;;;5.57;4.20;;;11.30;99.90;;;;;;4966650;28;20203;-50
2021/11/06 12:31:39;;;;;;;6.40;4.03;;;11.30;99.90;;;;;;4967763;28;20241;-50
2021/11/06 12:34:09;;;;;;;6.33;3.97;;;11.20;99.90;;;;;;4972617;28;20569;-52
2021/11/06 12:36:43;;;;;;;5.43;3.97;;;11.20;99.90;;;;;;4969641;28;20577;-51
2021/11/06 12:39:13;;;;;;;8.10;4.23;;;11.20;99.90;;;;;;4970701;28;20581;-50
2021/11/06 12:41:40;;;;;;;6.17;4.13;;;11.10;99.90;;;;;;4970644;28;20202;-50
2021/11/06 12:44:09;;;;;;;6.87;4.23;;;11.00;99.90;;;;;;4971358;28;20348;-50
2021/11/06 12:46:38;;;;;;;5.50;3.97;;;11.10;99.90;;;;;;4966246;28;20234;-50
2021/11/06 12:49:10;;;;;;;6.73;3.70;;;11.10;99.90;;;;;;4967951;28;20237;-49
2021/11/06 12:51:42;;;;;;;6.33;4.37;;;11.10;99.90;;;;;;4970889;28;20241;-50
2021/11/06 12:54:12;;;;;;;6.00;4.00;;;11.00;99.90;;;;;;4955073;28;20203;-50